createdAt,value
2018-09-16T00:00:42.438Z,0
2018-09-16T00:01:42.695Z,0
2018-09-16T00:02:42.169Z,0
2018-09-16T00:03:42.665Z,0
2018-09-16T00:04:42.661Z,0
2018-09-16T00:05:42.401Z,0
2018-09-16T00:06:42.642Z,0
2018-09-16T00:07:42.380Z,0
2018-09-16T00:08:42.374Z,0
2018-09-16T00:09:42.370Z,0
2018-09-16T00:10:42.359Z,0
2018-09-16T00:11:42.602Z,0
2018-09-16T00:12:42.348Z,0
2018-09-16T00:13:42.589Z,0
2018-09-16T00:14:42.852Z,0
2018-09-16T00:15:42.573Z,0
2018-09-16T00:16:42.313Z,0
2018-09-16T00:17:42.309Z,0
2018-09-16T00:18:42.299Z,0
2018-09-16T00:19:42.293Z,0
2018-09-16T00:20:42.288Z,0
2018-09-16T00:21:42.024Z,0
2018-09-16T00:22:42.518Z,0
2018-09-16T00:23:42.514Z,0
2018-09-16T00:24:42.564Z,0
2018-09-16T00:25:42.506Z,0
2018-09-16T00:26:42.507Z,0
2018-09-16T00:27:42.230Z,0
2018-09-16T00:28:42.470Z,0
2018-09-16T00:29:42.464Z,0
2018-09-16T00:30:42.457Z,0
2018-09-16T00:31:42.455Z,0
2018-09-16T00:32:42.445Z,0
2018-09-16T00:33:42.181Z,0
2018-09-16T00:34:42.177Z,0
2018-09-16T00:35:42.164Z,0
2018-09-16T00:36:42.414Z,0
2018-09-16T00:37:42.152Z,0
2018-09-16T00:38:42.143Z,0
2018-09-16T00:39:42.390Z,0
2018-09-16T00:40:42.379Z,0
2018-09-16T00:41:42.374Z,0
2018-09-16T00:42:42.116Z,0
2018-09-16T00:43:42.358Z,0
2018-09-16T00:44:42.349Z,0
2018-09-16T00:45:42.338Z,0
2018-09-16T00:46:42.083Z,0
2018-09-16T00:47:42.072Z,0
2018-09-16T00:48:42.314Z,0
2018-09-16T00:49:42.313Z,0
2018-09-16T00:50:42.346Z,0
2018-09-16T00:51:42.293Z,0
2018-09-16T00:52:42.282Z,0
2018-09-16T00:53:42.028Z,0
2018-09-16T00:54:42.281Z,0
2018-09-16T00:55:42.262Z,0
2018-09-16T00:56:42.256Z,0
2018-09-16T00:57:42.245Z,0
2018-09-16T00:58:41.996Z,0
2018-09-16T00:59:42.238Z,0
2018-09-16T01:00:41.971Z,0
2018-09-16T01:01:42.214Z,0
2018-09-16T01:02:41.960Z,0
2018-09-16T01:03:41.949Z,0
2018-09-16T01:04:42.187Z,0
2018-09-16T01:05:41.932Z,0
2018-09-16T01:06:42.173Z,0
2018-09-16T01:07:42.227Z,0
2018-09-16T01:08:42.158Z,0
2018-09-16T01:09:42.162Z,0
2018-09-16T01:10:42.145Z,0
2018-09-16T01:11:42.137Z,0
2018-09-16T01:12:41.874Z,0
2018-09-16T01:13:42.119Z,0
2018-09-16T01:14:42.109Z,0
2018-09-16T01:15:41.859Z,0
2018-09-16T01:16:42.098Z,0
2018-09-16T01:17:42.110Z,0
2018-09-16T01:18:41.825Z,0
2018-09-16T01:19:41.823Z,0
2018-09-16T01:20:42.069Z,0
2018-09-16T01:21:41.812Z,0
2018-09-16T01:22:42.047Z,0
2018-09-16T01:23:42.095Z,0
2018-09-16T01:24:42.027Z,0
2018-09-16T01:25:42.027Z,0
2018-09-16T01:26:42.028Z,0
2018-09-16T01:27:41.761Z,0
2018-09-16T01:28:41.999Z,0
2018-09-16T01:29:41.743Z,0
2018-09-16T01:30:41.732Z,0
2018-09-16T01:31:41.728Z,0
2018-09-16T01:32:41.213Z,0
2018-09-16T01:33:41.454Z,0
2018-09-16T01:34:41.966Z,0
2018-09-16T01:35:41.940Z,0
2018-09-16T01:36:41.939Z,0
2018-09-16T01:37:41.924Z,0
2018-09-16T01:38:41.920Z,0
2018-09-16T01:39:41.657Z,0
2018-09-16T01:40:41.910Z,0
2018-09-16T01:41:41.897Z,0
2018-09-16T01:42:41.635Z,0
2018-09-16T01:43:41.878Z,0
2018-09-16T01:44:41.898Z,0
2018-09-16T01:45:41.859Z,0
2018-09-16T01:46:41.851Z,0
2018-09-16T01:47:41.608Z,0
2018-09-16T01:48:41.331Z,0
2018-09-16T01:49:41.832Z,0
2018-09-16T01:50:41.874Z,0
2018-09-16T01:51:41.558Z,0
2018-09-16T01:52:41.804Z,0
2018-09-16T01:53:41.800Z,0
2018-09-16T01:54:41.790Z,0
2018-09-16T01:55:41.786Z,0
2018-09-16T01:56:41.521Z,0
2018-09-16T01:57:41.765Z,0
2018-09-16T01:58:41.756Z,0
2018-09-16T01:59:41.751Z,0
2018-09-16T02:00:41.494Z,0
2018-09-16T02:01:41.484Z,0
2018-09-16T02:02:41.477Z,0
2018-09-16T02:03:41.720Z,0
2018-09-16T02:04:41.708Z,0
2018-09-16T02:05:41.710Z,0
2018-09-16T02:06:41.690Z,0
2018-09-16T02:07:41.682Z,0
2018-09-16T02:08:41.674Z,0
2018-09-16T02:09:41.668Z,0
2018-09-16T02:10:41.658Z,0
2018-09-16T02:11:41.651Z,0
2018-09-16T02:12:41.654Z,0
2018-09-16T02:13:41.633Z,0
2018-09-16T02:14:41.625Z,0
2018-09-16T02:15:41.621Z,0
2018-09-16T02:16:41.107Z,0
2018-09-16T02:17:41.601Z,0
2018-09-16T02:18:41.592Z,0
2018-09-16T02:19:41.583Z,0
2018-09-16T02:20:41.579Z,0
2018-09-16T02:21:41.321Z,0
2018-09-16T02:22:41.563Z,0
2018-09-16T02:23:41.552Z,0
2018-09-16T02:24:41.301Z,0
2018-09-16T02:25:41.033Z,0
2018-09-16T02:26:41.528Z,0
2018-09-16T02:27:41.268Z,0
2018-09-16T02:28:41.513Z,0
2018-09-16T02:29:41.563Z,0
2018-09-16T02:30:41.496Z,0
2018-09-16T02:31:41.246Z,0
2018-09-16T02:32:41.226Z,0
2018-09-16T02:33:41.474Z,0
2018-09-16T02:34:41.474Z,0
2018-09-16T02:35:41.208Z,0
2018-09-16T02:36:41.195Z,0
2018-09-16T02:37:41.187Z,0
2018-09-16T02:38:41.182Z,0
2018-09-16T02:39:41.175Z,0
2018-09-16T02:40:41.421Z,0
2018-09-16T02:41:41.434Z,0
2018-09-16T02:42:41.396Z,0
2018-09-16T02:43:41.261Z,0
2018-09-16T02:44:41.131Z,0
2018-09-16T02:45:41.124Z,0
2018-09-16T02:46:41.363Z,0
2018-09-16T02:47:40.850Z,0
2018-09-16T02:48:41.345Z,0
2018-09-16T02:49:40.842Z,0
2018-09-16T02:50:41.581Z,0
2018-09-16T02:51:41.322Z,0
2018-09-16T02:52:41.318Z,0
2018-09-16T02:53:41.307Z,0
2018-09-16T02:54:41.047Z,0
2018-09-16T02:55:41.046Z,0
2018-09-16T02:56:41.028Z,0
2018-09-16T02:57:41.022Z,0
2018-09-16T02:58:41.013Z,0
2018-09-16T02:59:41.023Z,0
2018-09-16T03:00:41.668Z,0
2018-09-16T03:01:41.019Z,0
2018-09-16T03:02:40.986Z,0
2018-09-16T03:03:40.982Z,0
2018-09-16T03:04:40.966Z,0
2018-09-16T03:05:40.958Z,0
2018-09-16T03:06:41.208Z,0
2018-09-16T03:07:41.192Z,0
2018-09-16T03:08:41.189Z,0
2018-09-16T03:09:40.935Z,0
2018-09-16T03:10:40.914Z,0
2018-09-16T03:11:41.978Z,0
2018-09-16T03:12:41.159Z,0
2018-09-16T03:13:40.898Z,0
2018-09-16T03:14:41.136Z,0
2018-09-16T03:15:41.124Z,0
2018-09-16T03:16:41.120Z,0
2018-09-16T03:17:40.855Z,0
2018-09-16T03:18:41.371Z,0
2018-09-16T03:19:41.096Z,0
2018-09-16T03:20:41.084Z,0
2018-09-16T03:21:41.343Z,0
2018-09-16T03:22:40.817Z,0
2018-09-16T03:23:40.816Z,0
2018-09-16T03:24:40.804Z,0
2018-09-16T03:25:41.052Z,0
2018-09-16T03:26:40.800Z,0
2018-09-16T03:27:40.779Z,0
2018-09-16T03:28:40.516Z,0
2018-09-16T03:29:41.014Z,0
2018-09-16T03:30:40.761Z,0
2018-09-16T03:31:40.760Z,0
2018-09-16T03:32:40.740Z,0
2018-09-16T03:33:40.734Z,0
2018-09-16T03:34:41.000Z,0
2018-09-16T03:35:40.959Z,0
2018-09-16T03:36:40.706Z,0
2018-09-16T03:37:40.696Z,0
2018-09-16T03:38:40.939Z,0
2018-09-16T03:39:40.683Z,0
2018-09-16T03:40:40.930Z,0
2018-09-16T03:41:40.915Z,0
2018-09-16T03:42:40.907Z,0
2018-09-16T03:43:40.902Z,0
2018-09-16T03:44:40.892Z,0
2018-09-16T03:45:40.895Z,0
2018-09-16T03:46:40.961Z,0
2018-09-16T03:47:40.868Z,0
2018-09-16T03:48:40.356Z,0
2018-09-16T03:49:40.604Z,0
2018-09-16T03:50:40.980Z,0
2018-09-16T03:51:40.873Z,0
2018-09-16T03:52:40.825Z,0
2018-09-16T03:53:40.565Z,0
2018-09-16T03:54:40.311Z,0
2018-09-16T03:55:40.547Z,0
2018-09-16T03:56:40.793Z,0
2018-09-16T03:57:41.582Z,0
2018-09-16T03:58:40.778Z,0
2018-09-16T03:59:40.516Z,0
2018-09-16T04:00:40.758Z,0
2018-09-16T04:01:40.497Z,0
2018-09-16T04:02:40.255Z,0
2018-09-16T04:03:40.483Z,0
2018-09-16T04:04:40.724Z,4
2018-09-16T04:05:40.729Z,4
2018-09-16T04:06:40.708Z,0
2018-09-16T04:07:40.447Z,4
2018-09-16T04:08:40.444Z,4
2018-09-16T04:09:40.681Z,4
2018-09-16T04:10:40.678Z,4
2018-09-16T04:11:40.701Z,4
2018-09-16T04:12:40.417Z,4
2018-09-16T04:13:40.659Z,8
2018-09-16T04:14:40.644Z,8
2018-09-16T04:15:40.634Z,8
2018-09-16T04:16:40.632Z,12
2018-09-16T04:17:40.614Z,16
2018-09-16T04:18:40.624Z,12
2018-09-16T04:19:40.597Z,16
2018-09-16T04:20:40.340Z,20
2018-09-16T04:21:40.580Z,24
2018-09-16T04:22:40.328Z,28
2018-09-16T04:23:40.563Z,36
2018-09-16T04:24:40.559Z,40
2018-09-16T04:25:40.560Z,48
2018-09-16T04:26:40.543Z,56
2018-09-16T04:27:40.296Z,64
2018-09-16T04:28:40.273Z,76
2018-09-16T04:29:40.264Z,88
2018-09-16T04:30:40.505Z,96
2018-09-16T04:31:40.255Z,112
2018-09-16T04:32:40.490Z,124
2018-09-16T04:33:40.719Z,140
2018-09-16T04:34:40.220Z,152
2018-09-16T04:35:40.463Z,168
2018-09-16T04:36:40.457Z,192
2018-09-16T04:37:40.196Z,216
2018-09-16T04:38:40.190Z,240
2018-09-16T04:39:40.436Z,272
2018-09-16T04:40:40.423Z,308
2018-09-16T04:41:40.161Z,340
2018-09-16T04:42:40.151Z,380
2018-09-16T04:43:39.891Z,424
2018-09-16T04:44:40.145Z,472
2018-09-16T04:45:40.382Z,524
2018-09-16T04:46:40.369Z,576
2018-09-16T04:47:40.360Z,628
2018-09-16T04:48:40.363Z,688
2018-09-16T04:49:40.347Z,756
2018-09-16T04:50:40.333Z,824
2018-09-16T04:51:40.329Z,900
2018-09-16T04:52:40.322Z,980
2018-09-16T04:53:40.313Z,1060
2018-09-16T04:54:40.557Z,1152
2018-09-16T04:55:40.293Z,1248
2018-09-16T04:56:40.282Z,1336
2018-09-16T04:57:40.275Z,1432
2018-09-16T04:58:40.270Z,1520
2018-09-16T04:59:40.262Z,1612
2018-09-16T05:00:40.273Z,1704
2018-09-16T05:01:40.001Z,1804
2018-09-16T05:02:39.981Z,1912
2018-09-16T05:03:39.971Z,2024
2018-09-16T05:04:40.220Z,2152
2018-09-16T05:05:39.957Z,2304
2018-09-16T05:06:40.199Z,2400
2018-09-16T05:07:40.192Z,2504
2018-09-16T05:08:40.189Z,2712
2018-09-16T05:09:40.178Z,2916
2018-09-16T05:10:40.706Z,3032
2018-09-16T05:11:40.164Z,3128
2018-09-16T05:12:39.900Z,3248
2018-09-16T05:13:39.908Z,3340
2018-09-16T05:14:39.895Z,3384
2018-09-16T05:15:40.130Z,3456
2018-09-16T05:16:40.120Z,3580
2018-09-16T05:17:40.113Z,3668
2018-09-16T05:18:40.105Z,3700
2018-09-16T05:19:40.100Z,3768
2018-09-16T05:20:39.839Z,3792
2018-09-16T05:21:40.091Z,3712
2018-09-16T05:22:40.399Z,3632
2018-09-16T05:23:40.073Z,3508
2018-09-16T05:24:39.812Z,3464
2018-09-16T05:25:39.804Z,3460
2018-09-16T05:26:40.050Z,3456
2018-09-16T05:27:39.793Z,3492
2018-09-16T05:28:39.780Z,3540
2018-09-16T05:29:40.025Z,3616
2018-09-16T05:30:40.025Z,3752
2018-09-16T05:31:40.210Z,3952
2018-09-16T05:32:40.008Z,4132
2018-09-16T05:33:39.749Z,4280
2018-09-16T05:34:39.741Z,4556
2018-09-16T05:35:39.988Z,4832
2018-09-16T05:36:39.729Z,4924
2018-09-16T05:37:39.975Z,4844
2018-09-16T05:38:39.714Z,4880
2018-09-16T05:39:39.958Z,5128
2018-09-16T05:40:39.701Z,5328
2018-09-16T05:41:39.702Z,5652
2018-09-16T05:42:39.696Z,5792
2018-09-16T05:43:39.934Z,6352
2018-09-16T05:44:39.678Z,6644
2018-09-16T05:45:39.920Z,6884
2018-09-16T05:46:39.409Z,7468
2018-09-16T05:47:39.907Z,7496
2018-09-16T05:48:39.916Z,7496
2018-09-16T05:49:39.908Z,7672
2018-09-16T05:50:39.641Z,8164
2018-09-16T05:51:39.884Z,8952
2018-09-16T05:52:40.154Z,9384
2018-09-16T05:53:40.678Z,9912
2018-09-16T05:54:39.877Z,10080
2018-09-16T05:55:39.911Z,10300
2018-09-16T05:56:39.609Z,11100
2018-09-16T05:57:39.851Z,10548
2018-09-16T05:58:39.849Z,11136
2018-09-16T05:59:39.907Z,11564
2018-09-16T06:00:39.847Z,11420
2018-09-16T06:01:39.841Z,11300
2018-09-16T06:02:39.830Z,10796
2018-09-16T06:03:39.831Z,10336
2018-09-16T06:04:39.934Z,10232
2018-09-16T06:05:39.820Z,10200
2018-09-16T06:06:39.810Z,10780
2018-09-16T06:07:39.814Z,11428
2018-09-16T06:08:39.814Z,11540
2018-09-16T06:09:39.812Z,10892
2018-09-16T06:10:39.806Z,13216
2018-09-16T06:11:39.796Z,14784
2018-09-16T06:12:39.792Z,15936
2018-09-16T06:13:39.542Z,15680
2018-09-16T06:14:39.535Z,14816
2018-09-16T06:15:39.789Z,13060
2018-09-16T06:16:39.781Z,14560
2018-09-16T06:17:39.779Z,14656
2018-09-16T06:18:39.528Z,16064
2018-09-16T06:19:39.813Z,15904
2018-09-16T06:20:39.775Z,15520
2018-09-16T06:21:39.773Z,16800
2018-09-16T06:22:39.900Z,18144
2018-09-16T06:23:39.520Z,17536
2018-09-16T06:24:39.519Z,18240
2018-09-16T06:25:39.776Z,19040
2018-09-16T06:26:39.513Z,20960
2018-09-16T06:27:39.264Z,21600
2018-09-16T06:28:39.766Z,20736
2018-09-16T06:29:39.772Z,20512
2018-09-16T06:30:39.819Z,22112
2018-09-16T06:31:39.763Z,22144
2018-09-16T06:32:39.772Z,21248
2018-09-16T06:33:40.165Z,21376
2018-09-16T06:34:39.765Z,21056
2018-09-16T06:35:39.263Z,20032
2018-09-16T06:36:39.765Z,20608
2018-09-16T06:37:39.524Z,20992
2018-09-16T06:38:39.523Z,20416
2018-09-16T06:39:39.770Z,19296
2018-09-16T06:40:39.775Z,20288
2018-09-16T06:41:39.779Z,20128
2018-09-16T06:42:39.780Z,21600
2018-09-16T06:43:39.794Z,21472
2018-09-16T06:44:39.779Z,21792
2018-09-16T06:45:39.781Z,23360
2018-09-16T06:46:39.537Z,24096
2018-09-16T06:47:39.791Z,25152
2018-09-16T06:48:39.793Z,24928
2018-09-16T06:49:39.795Z,26144
2018-09-16T06:50:39.551Z,25696
2018-09-16T06:51:39.802Z,24544
2018-09-16T06:52:39.811Z,23904
2018-09-16T06:53:39.805Z,22816
2018-09-16T06:54:39.899Z,23872
2018-09-16T06:55:41.500Z,24704
2018-09-16T06:56:39.822Z,24800
2018-09-16T06:57:39.572Z,23296
2018-09-16T06:58:39.574Z,23168
2018-09-16T06:59:40.086Z,24768
2018-09-16T07:00:39.390Z,26048
2018-09-16T07:01:39.852Z,28320
2018-09-16T07:02:39.845Z,29056
2018-09-16T07:03:39.846Z,28512
2018-09-16T07:04:39.857Z,28384
2018-09-16T07:05:39.859Z,28352
2018-09-16T07:06:39.862Z,31232
2018-09-16T07:07:39.870Z,31168
2018-09-16T07:08:39.876Z,30656
2018-09-16T07:09:39.627Z,31360
2018-09-16T07:10:39.886Z,32448
2018-09-16T07:11:39.889Z,35072
2018-09-16T07:12:39.903Z,41248
2018-09-16T07:13:39.897Z,43136
2018-09-16T07:14:40.180Z,43936
2018-09-16T07:15:39.668Z,41312
2018-09-16T07:16:39.667Z,40288
2018-09-16T07:17:39.923Z,41824
2018-09-16T07:18:39.429Z,39232
2018-09-16T07:19:39.940Z,42176
2018-09-16T07:20:41.423Z,45344
2018-09-16T07:21:39.710Z,45344
2018-09-16T07:22:39.721Z,44640
2018-09-16T07:23:39.723Z,44416
2018-09-16T07:24:39.973Z,44896
2018-09-16T07:25:39.985Z,44672
2018-09-16T07:26:40.054Z,44096
2018-09-16T07:27:39.997Z,47264
2018-09-16T07:28:40.003Z,46784
2018-09-16T07:29:40.021Z,46816
2018-09-16T07:30:39.766Z,47680
2018-09-16T07:31:40.034Z,46368
2018-09-16T07:32:40.038Z,45120
2018-09-16T07:33:40.220Z,41536
2018-09-16T07:34:40.057Z,37504
2018-09-16T07:35:40.064Z,36640
2018-09-16T07:36:40.074Z,35424
2018-09-16T07:37:40.077Z,37280
2018-09-16T07:38:40.085Z,36352
2018-09-16T07:39:40.094Z,33184
2018-09-16T07:40:40.106Z,34432
2018-09-16T07:41:40.112Z,36160
2018-09-16T07:42:39.865Z,37888
2018-09-16T07:43:40.126Z,36256
2018-09-16T07:44:39.882Z,28384
2018-09-16T07:45:40.145Z,35616
2018-09-16T07:46:40.147Z,33280
2018-09-16T07:47:40.155Z,29824
2018-09-16T07:48:40.166Z,31712
2018-09-16T07:49:39.921Z,35008
2018-09-16T07:50:40.179Z,37728
2018-09-16T07:51:40.441Z,36064
2018-09-16T07:52:40.243Z,34784
2018-09-16T07:53:40.202Z,33664
2018-09-16T07:54:39.955Z,31744
2018-09-16T07:55:40.219Z,32224
2018-09-16T07:56:40.270Z,34336
2018-09-16T07:57:39.723Z,35360
2018-09-16T07:58:39.985Z,32448
2018-09-16T07:59:39.992Z,30112
2018-09-16T08:00:40.607Z,30240
2018-09-16T08:01:40.006Z,30752
2018-09-16T08:02:40.264Z,28320
2018-09-16T08:03:40.267Z,30592
2018-09-16T08:04:40.021Z,30496
2018-09-16T08:05:40.427Z,21888
2018-09-16T08:06:40.041Z,14356
2018-09-16T08:07:39.788Z,13484
2018-09-16T08:08:40.298Z,13388
2018-09-16T08:09:39.809Z,13500
2018-09-16T08:10:40.054Z,13720
2018-09-16T08:11:40.310Z,13852
2018-09-16T08:12:39.811Z,13884
2018-09-16T08:13:40.453Z,14220
2018-09-16T08:14:39.821Z,14500
2018-09-16T08:15:40.129Z,14592
2018-09-16T08:16:40.339Z,14596
2018-09-16T08:17:40.348Z,14556
2018-09-16T08:18:40.343Z,14848
2018-09-16T08:19:40.343Z,15208
2018-09-16T08:20:40.348Z,15500
2018-09-16T08:21:40.352Z,15580
2018-09-16T08:22:40.103Z,15524
2018-09-16T08:23:40.352Z,15528
2018-09-16T08:24:40.106Z,15508
2018-09-16T08:25:40.356Z,15456
2018-09-16T08:26:40.367Z,15316
2018-09-16T08:27:40.403Z,15148
2018-09-16T08:28:40.897Z,14916
2018-09-16T08:29:40.371Z,14488
2018-09-16T08:30:40.365Z,14316
2018-09-16T08:31:39.866Z,14404
2018-09-16T08:32:40.377Z,14816
2018-09-16T08:33:40.374Z,15152
2018-09-16T08:34:40.382Z,15336
2018-09-16T08:35:40.375Z,15292
2018-09-16T08:36:40.124Z,15004
2018-09-16T08:37:39.875Z,14884
2018-09-16T08:38:40.379Z,14664
2018-09-16T08:39:40.378Z,14356
2018-09-16T08:40:40.381Z,14308
2018-09-16T08:41:40.393Z,14156
2018-09-16T08:42:40.133Z,14024
2018-09-16T08:43:40.420Z,14228
2018-09-16T08:44:40.138Z,14380
2018-09-16T08:45:40.366Z,14472
2018-09-16T08:46:40.392Z,14548
2018-09-16T08:47:40.389Z,14612
2018-09-16T08:48:40.392Z,14416
2018-09-16T08:49:40.388Z,14292
2018-09-16T08:50:40.139Z,14160
2018-09-16T08:51:40.391Z,14048
2018-09-16T08:52:40.395Z,14072
2018-09-16T08:53:40.141Z,13904
2018-09-16T08:54:40.392Z,13668
2018-09-16T08:55:40.404Z,13384
2018-09-16T08:56:40.403Z,13200
2018-09-16T08:57:40.392Z,13140
2018-09-16T08:58:40.544Z,13120
2018-09-16T08:59:40.409Z,13128
2018-09-16T09:00:40.152Z,12936
2018-09-16T09:01:40.398Z,12808
2018-09-16T09:02:40.400Z,12800
2018-09-16T09:03:40.153Z,12780
2018-09-16T09:04:40.396Z,12844
2018-09-16T09:05:40.397Z,12460
2018-09-16T09:06:40.143Z,12468
2018-09-16T09:07:40.146Z,12592
2018-09-16T09:08:40.394Z,12192
2018-09-16T09:09:40.395Z,12008
2018-09-16T09:10:40.454Z,11668
2018-09-16T09:11:40.145Z,11500
2018-09-16T09:12:40.406Z,11524
2018-09-16T09:13:40.147Z,11608
2018-09-16T09:14:40.400Z,11632
2018-09-16T09:15:40.396Z,11696
2018-09-16T09:16:40.397Z,11828
2018-09-16T09:17:40.398Z,11880
2018-09-16T09:18:40.401Z,11640
2018-09-16T09:19:40.396Z,11800
2018-09-16T09:20:40.396Z,11868
2018-09-16T09:21:40.392Z,11940
2018-09-16T09:22:40.140Z,12468
2018-09-16T09:23:40.441Z,12760
2018-09-16T09:24:40.144Z,13172
2018-09-16T09:25:40.395Z,13236
2018-09-16T09:26:40.395Z,13128
2018-09-16T09:27:40.393Z,12500
2018-09-16T09:28:40.149Z,11652
2018-09-16T09:29:40.397Z,10912
2018-09-16T09:30:40.397Z,10760
2018-09-16T09:31:40.394Z,10276
2018-09-16T09:32:40.139Z,10084
2018-09-16T09:33:40.390Z,10008
2018-09-16T09:34:40.397Z,10024
2018-09-16T09:35:40.000Z,9692
2018-09-16T09:36:40.447Z,9844
2018-09-16T09:37:40.138Z,10040
2018-09-16T09:38:40.404Z,10548
2018-09-16T09:39:40.390Z,10612
2018-09-16T09:40:40.394Z,10908
2018-09-16T09:41:39.886Z,11284
2018-09-16T09:42:40.206Z,11544
2018-09-16T09:43:40.389Z,11720
2018-09-16T09:44:40.139Z,11692
2018-09-16T09:45:40.388Z,11384
2018-09-16T09:46:39.887Z,12612
2018-09-16T09:47:40.390Z,13624
2018-09-16T09:48:40.388Z,14096
2018-09-16T09:49:40.142Z,15168
2018-09-16T09:50:39.888Z,15812
2018-09-16T09:51:40.133Z,15944
2018-09-16T09:52:40.387Z,15632
2018-09-16T09:53:40.513Z,15100
2018-09-16T09:54:40.411Z,14764
2018-09-16T09:55:40.388Z,13832
2018-09-16T09:56:40.385Z,13048
2018-09-16T09:57:40.140Z,12940
2018-09-16T09:58:40.139Z,13236
2018-09-16T09:59:40.389Z,13604
2018-09-16T10:00:40.400Z,14416
2018-09-16T10:01:40.385Z,14996
2018-09-16T10:02:40.134Z,15000
2018-09-16T10:03:40.401Z,14280
2018-09-16T10:04:40.386Z,14384
2018-09-16T10:05:40.384Z,14576
2018-09-16T10:06:40.154Z,14132
2018-09-16T10:07:40.390Z,13744
2018-09-16T10:08:40.401Z,13204
2018-09-16T10:09:40.391Z,12848
2018-09-16T10:10:40.135Z,12752
2018-09-16T10:11:40.393Z,13340
2018-09-16T10:12:40.141Z,14040
2018-09-16T10:13:40.135Z,13592
2018-09-16T10:14:40.524Z,12584
2018-09-16T10:15:40.397Z,12020
2018-09-16T10:16:40.388Z,11960
2018-09-16T10:17:40.393Z,11724
2018-09-16T10:18:40.403Z,11860
2018-09-16T10:19:40.397Z,11448
2018-09-16T10:20:40.391Z,11688
2018-09-16T10:21:40.451Z,12208
2018-09-16T10:22:40.589Z,11952
2018-09-16T10:23:40.395Z,11456
2018-09-16T10:24:40.401Z,11096
2018-09-16T10:25:40.396Z,11240
2018-09-16T10:26:40.450Z,11272
2018-09-16T10:27:40.393Z,11128
2018-09-16T10:28:40.396Z,11252
2018-09-16T10:29:40.396Z,11824
2018-09-16T10:30:40.412Z,12476
2018-09-16T10:31:40.394Z,11748
2018-09-16T10:32:40.394Z,10780
2018-09-16T10:33:40.143Z,10224
2018-09-16T10:34:40.400Z,10372
2018-09-16T10:35:40.144Z,10636
2018-09-16T10:36:40.392Z,11096
2018-09-16T10:37:40.144Z,11768
2018-09-16T10:38:40.540Z,12028
2018-09-16T10:39:40.416Z,12484
2018-09-16T10:40:40.157Z,12404
2018-09-16T10:41:40.405Z,11984
2018-09-16T10:42:40.409Z,11684
2018-09-16T10:43:40.407Z,11148
2018-09-16T10:44:40.409Z,11124
2018-09-16T10:45:40.152Z,11860
2018-09-16T10:46:40.407Z,12832
2018-09-16T10:47:40.400Z,13244
2018-09-16T10:48:40.409Z,12592
2018-09-16T10:49:40.401Z,11076
2018-09-16T10:50:40.403Z,9964
2018-09-16T10:51:40.406Z,10080
2018-09-16T10:52:40.407Z,10928
2018-09-16T10:53:40.159Z,11368
2018-09-16T10:54:40.153Z,11748
2018-09-16T10:55:40.401Z,12400
2018-09-16T10:56:40.404Z,13064
2018-09-16T10:57:40.407Z,14376
2018-09-16T10:58:40.167Z,15400
2018-09-16T10:59:40.150Z,15820
2018-09-16T11:00:40.459Z,15644
2018-09-16T11:01:40.401Z,15292
2018-09-16T11:02:40.411Z,14884
2018-09-16T11:03:40.153Z,14448
2018-09-16T11:04:40.409Z,14236
2018-09-16T11:05:40.405Z,14400
2018-09-16T11:06:40.452Z,14664
2018-09-16T11:07:40.159Z,14712
2018-09-16T11:08:40.154Z,14716
2018-09-16T11:09:40.160Z,15260
2018-09-16T11:10:40.424Z,16256
2018-09-16T11:11:40.157Z,17056
2018-09-16T11:12:40.405Z,16832
2018-09-16T11:13:40.155Z,17152
2018-09-16T11:14:40.408Z,17056
2018-09-16T11:15:40.197Z,16704
2018-09-16T11:16:40.414Z,16024
2018-09-16T11:17:40.164Z,16288
2018-09-16T11:18:40.414Z,17536
2018-09-16T11:19:40.160Z,17952
2018-09-16T11:20:40.416Z,16832
2018-09-16T11:21:40.420Z,15260
2018-09-16T11:22:40.426Z,14100
2018-09-16T11:23:40.168Z,13380
2018-09-16T11:24:40.430Z,13232
2018-09-16T11:25:40.434Z,13240
2018-09-16T11:26:40.425Z,14020
2018-09-16T11:27:40.171Z,13044
2018-09-16T11:28:40.428Z,11568
2018-09-16T11:29:40.425Z,10124
2018-09-16T11:30:40.435Z,9836
2018-09-16T11:31:40.432Z,10216
2018-09-16T11:32:40.433Z,10692
2018-09-16T11:33:40.433Z,11300
2018-09-16T11:34:40.435Z,11900
2018-09-16T11:35:40.866Z,11832
2018-09-16T11:36:40.443Z,12656
2018-09-16T11:37:40.451Z,13572
2018-09-16T11:38:40.437Z,14956
2018-09-16T11:39:40.443Z,15796
2018-09-16T11:40:40.442Z,15280
2018-09-16T11:41:40.441Z,14128
2018-09-16T11:42:40.452Z,12644
2018-09-16T11:43:40.453Z,11852
2018-09-16T11:44:40.445Z,11920
2018-09-16T11:45:40.445Z,12500
2018-09-16T11:46:40.451Z,13024
2018-09-16T11:47:40.196Z,13120
2018-09-16T11:48:39.945Z,12468
2018-09-16T11:49:40.203Z,11760
2018-09-16T11:50:40.206Z,11200
2018-09-16T11:51:40.809Z,10892
2018-09-16T11:52:40.217Z,10840
2018-09-16T11:53:40.210Z,10692
2018-09-16T11:54:40.208Z,11068
2018-09-16T11:55:40.218Z,12192
2018-09-16T11:56:40.459Z,13608
2018-09-16T11:57:40.464Z,14144
2018-09-16T11:58:40.217Z,15448
2018-09-16T11:59:40.211Z,16384
2018-09-16T12:00:40.218Z,16144
2018-09-16T12:01:40.472Z,16116
2018-09-16T12:02:40.467Z,15256
2018-09-16T12:03:40.480Z,14920
2018-09-16T12:04:40.472Z,14492
2018-09-16T12:05:40.473Z,14268
2018-09-16T12:06:40.473Z,14248
2018-09-16T12:07:40.476Z,14384
2018-09-16T12:08:40.483Z,14816
2018-09-16T12:09:40.478Z,14504
2018-09-16T12:10:40.228Z,14832
2018-09-16T12:11:40.595Z,14980
2018-09-16T12:12:40.484Z,15176
2018-09-16T12:13:40.484Z,15136
2018-09-16T12:14:40.486Z,14888
2018-09-16T12:15:40.484Z,14856
2018-09-16T12:16:40.495Z,15444
2018-09-16T12:17:40.500Z,15944
2018-09-16T12:18:40.243Z,15724
2018-09-16T12:19:39.996Z,15588
2018-09-16T12:20:40.509Z,15064
2018-09-16T12:21:40.502Z,14436
2018-09-16T12:22:40.508Z,13564
2018-09-16T12:23:40.552Z,13452
2018-09-16T12:24:40.500Z,13232
2018-09-16T12:25:40.523Z,13716
2018-09-16T12:26:40.019Z,14968
2018-09-16T12:27:40.506Z,16320
2018-09-16T12:28:40.506Z,16864
2018-09-16T12:29:40.509Z,17088
2018-09-16T12:30:40.521Z,17120
2018-09-16T12:31:40.268Z,16704
2018-09-16T12:32:40.266Z,16064
2018-09-16T12:33:40.264Z,15420
2018-09-16T12:34:40.527Z,14876
2018-09-16T12:35:40.531Z,14180
2018-09-16T12:36:40.272Z,13488
2018-09-16T12:37:40.020Z,12708
2018-09-16T12:38:40.279Z,11936
2018-09-16T12:39:40.027Z,10832
2018-09-16T12:40:40.280Z,9888
2018-09-16T12:41:40.541Z,9364
2018-09-16T12:42:40.281Z,8928
2018-09-16T12:43:40.041Z,8564
2018-09-16T12:44:40.290Z,8368
2018-09-16T12:45:40.287Z,8220
2018-09-16T12:46:40.547Z,7756
2018-09-16T12:47:40.042Z,7508
2018-09-16T12:48:40.546Z,8108
2018-09-16T12:49:40.548Z,8248
2018-09-16T12:50:40.299Z,9008
2018-09-16T12:51:40.298Z,9680
2018-09-16T12:52:40.553Z,10980
2018-09-16T12:53:40.555Z,11936
2018-09-16T12:54:40.558Z,12464
2018-09-16T12:55:40.566Z,10876
2018-09-16T12:56:40.565Z,9856
2018-09-16T12:57:40.317Z,9652
2018-09-16T12:58:40.562Z,9708
2018-09-16T12:59:40.566Z,9844
2018-09-16T13:00:40.564Z,9716
2018-09-16T13:01:40.568Z,9860
2018-09-16T13:02:40.577Z,9532
2018-09-16T13:03:40.569Z,9036
2018-09-16T13:04:40.689Z,8576
2018-09-16T13:05:40.065Z,8492
2018-09-16T13:06:40.325Z,8812
2018-09-16T13:07:40.571Z,8844
2018-09-16T13:08:40.072Z,8828
2018-09-16T13:09:40.580Z,8976
2018-09-16T13:10:40.584Z,9416
2018-09-16T13:11:40.574Z,10428
2018-09-16T13:12:40.579Z,11412
2018-09-16T13:13:40.950Z,11668
2018-09-16T13:14:40.581Z,11172
2018-09-16T13:15:40.595Z,10960
2018-09-16T13:16:40.328Z,10596
2018-09-16T13:17:40.583Z,9908
2018-09-16T13:18:40.592Z,9232
2018-09-16T13:19:40.083Z,8748
2018-09-16T13:20:40.582Z,8128
2018-09-16T13:21:40.584Z,7628
2018-09-16T13:22:40.582Z,7328
2018-09-16T13:23:40.582Z,7080
2018-09-16T13:24:40.335Z,6840
2018-09-16T13:25:40.588Z,6616
2018-09-16T13:26:40.583Z,6600
2018-09-16T13:27:40.334Z,6904
2018-09-16T13:28:40.747Z,6980
2018-09-16T13:29:40.591Z,6920
2018-09-16T13:30:40.331Z,7172
2018-09-16T13:31:40.342Z,7656
2018-09-16T13:32:40.589Z,8220